Time;durP1;ratioP1;P1;durP2;ratioP2;P2;SDS_P1;SDS_P2;PMS_P1;PMS_P2;Temp;Humidity;BMP_temperature;BMP_pressure;BME280_temperature;BME280_humidity;BME280_pressure;Samples;Min_cycle;Max_cycle;Signal;HPM_P1;HPM_P2
2024/03/21 00:01:44;;;;;;;;;;;;;;;14.30;38.67;99327.38;68284;1283;1015985;-62
2024/03/21 00:04:46;;;;;;;;;;;;;;;14.20;38.94;99326.48;68273;1283;1015456;-61
2024/03/21 00:07:49;;;;;;;;;;;;;;;14.11;38.92;99325.53;68277;1283;1015433;-69
2024/03/21 00:10:51;;;;;;;;;;;;;;;14.17;39.02;99321.20;68292;1283;1015795;-70
2024/03/21 00:13:54;;;;;;;;;;;;;;;14.00;39.17;99326.45;68304;1283;1015304;-69
2024/03/21 00:16:56;;;;;;;;;;;;;;;13.93;39.32;99328.45;68278;1283;1015452;-62
2024/03/21 00:19:59;;;;;;;;;;;;;;;13.95;39.37;99327.45;68306;1283;1014990;-69
2024/03/21 00:23:01;;;;;;;;;;;;;;;13.94;39.24;99327.70;68279;1283;1015667;-64
2024/03/21 00:26:05;;;;;;;;;;;;;;;13.92;39.26;99326.09;68289;1283;1014810;-61
2024/03/21 00:29:07;;;;;;;;;;;;;;;13.88;39.25;99327.02;68287;1283;1015771;-70
2024/03/21 00:32:10;;;;;;;;;;;;;;;13.90;39.36;99329.58;68280;1283;1016015;-62
2024/03/21 00:35:13;;;;;;;;;;;;;;;13.92;39.29;99332.59;68276;1283;1016675;-62
2024/03/21 00:38:16;;;;;;;;;;;;;;;13.92;39.39;99328.55;68293;1283;1015640;-61
2024/03/21 00:41:19;;;;;;;;;;;;;;;13.94;39.39;99326.09;68298;1283;1015538;-69
2024/03/21 00:44:21;;;;;;;;;;;;;;;13.85;39.42;99320.36;68292;1283;1015552;-70
2024/03/21 00:47:24;;;;;;;;;;;;;;;13.96;39.38;99317.69;68282;1283;1016256;-62
2024/03/21 00:50:26;;;;;;;;;;;;;;;13.94;39.32;99315.89;68300;1283;1015773;-69
2024/03/21 00:53:29;;;;;;;;;;;;;;;13.85;39.38;99315.08;68290;1283;1015334;-62
2024/03/21 00:56:31;;;;;;;;;;;;;;;13.78;39.73;99319.04;68289;1283;1016093;-70
2024/03/21 00:59:34;;;;;;;;;;;;;;;13.81;39.53;99318.14;68288;1283;1016168;-63
2024/03/21 01:02:37;;;;;;;;;;;;;;;13.76;39.64;99311.31;68279;1283;1015662;-62
2024/03/21 01:05:39;;;;;;;;;;;;;;;13.69;39.65;99307.36;68284;1283;1015593;-62
2024/03/21 01:08:41;;;;;;;;;;;;;;;13.62;39.96;99304.86;68298;1283;1015321;-69
2024/03/21 01:11:44;;;;;;;;;;;;;;;13.69;39.73;99303.15;68282;1283;1014549;-70
2024/03/21 01:14:46;;;;;;;;;;;;;;;13.82;39.66;99304.18;68291;1283;1016264;-69
2024/03/21 01:17:49;;;;;;;;;;;;;;;13.73;39.91;99297.66;68297;1283;1015825;-62
2024/03/21 01:20:51;;;;;;;;;;;;;;;13.67;39.83;99296.59;68285;1283;1015747;-62
2024/03/21 01:23:54;;;;;;;;;;;;;;;13.64;39.91;99297.17;68287;1283;1015626;-69
2024/03/21 01:26:56;;;;;;;;;;;;;;;13.56;40.03;99296.60;68282;1283;1015986;-66
2024/03/21 01:29:59;;;;;;;;;;;;;;;13.46;40.01;99294.09;68292;1283;1015800;-65
2024/03/21 01:33:03;;;;;;;;;;;;;;;13.44;39.95;99291.59;68277;1283;1015633;-64
2024/03/21 01:36:05;;;;;;;;;;;;;;;13.48;40.02;99287.52;68295;1283;1015456;-61
2024/03/21 01:39:08;;;;;;;;;;;;;;;13.50;39.95;99283.70;68290;1283;1016161;-70
2024/03/21 01:42:11;;;;;;;;;;;;;;;13.46;39.92;99285.15;68287;1283;1016234;-61
2024/03/21 01:45:13;;;;;;;;;;;;;;;13.54;39.82;99283.05;68276;1283;1015882;-62
2024/03/21 01:48:15;;;;;;;;;;;;;;;13.58;39.78;99282.83;68295;1283;1015950;-69
2024/03/21 01:51:18;;;;;;;;;;;;;;;13.54;39.58;99275.13;68288;1283;1015413;-64
2024/03/21 01:54:20;;;;;;;;;;;;;;;13.49;39.66;99279.20;68300;1283;1015948;-65
2024/03/21 01:57:23;;;;;;;;;;;;;;;13.44;39.82;99275.48;68295;1283;1015395;-66
2024/03/21 02:00:25;;;;;;;;;;;;;;;13.49;40.04;99279.02;68299;1283;1015632;-62
2024/03/21 02:03:28;;;;;;;;;;;;;;;13.59;40.05;99280.95;68278;1283;1015383;-68
2024/03/21 02:06:30;;;;;;;;;;;;;;;13.69;39.66;99276.11;68300;1283;1016036;-69
2024/03/21 02:09:33;;;;;;;;;;;;;;;13.60;39.63;99275.30;68272;1283;1016063;-70
2024/03/21 02:12:35;;;;;;;;;;;;;;;13.39;39.84;99275.59;68288;1283;1016121;-65
2024/03/21 02:15:38;;;;;;;;;;;;;;;13.25;40.19;99271.90;68281;1283;1015593;-62
2024/03/21 02:18:40;;;;;;;;;;;;;;;13.25;40.42;99270.81;68289;1283;1015480;-64
2024/03/21 02:25:04;;;;;;;;;;;;;;;13.19;40.27;99276.34;68284;1283;1016037;-69
2024/03/21 02:28:06;;;;;;;;;;;;;;;12.89;40.55;99275.77;68287;1283;1015723;-70
2024/03/21 02:31:09;;;;;;;;;;;;;;;12.65;40.79;99276.59;68290;1283;1015666;-62
2024/03/21 02:34:11;;;;;;;;;;;;;;;12.76;40.44;99276.23;68285;1283;1015906;-64
2024/03/21 02:37:14;;;;;;;;;;;;;;;12.81;40.40;99277.34;68290;1283;1015715;-65
2024/03/21 02:40:17;;;;;;;;;;;;;;;12.93;40.17;99270.45;68290;1283;1016252;-63
2024/03/21 02:43:19;;;;;;;;;;;;;;;12.97;40.09;99274.91;68295;1283;1015661;-69
2024/03/21 02:46:22;;;;;;;;;;;;;;;12.86;40.54;99276.81;68285;1283;1015294;-68
2024/03/21 02:49:24;;;;;;;;;;;;;;;12.84;40.58;99280.63;68281;1283;1016206;-69
2024/03/21 02:52:26;;;;;;;;;;;;;;;12.53;40.71;99280.09;68279;1283;1016070;-69
2024/03/21 02:55:29;;;;;;;;;;;;;;;12.49;41.11;99281.77;68290;1283;1014547;-69
2024/03/21 02:58:31;;;;;;;;;;;;;;;12.50;41.10;99282.04;68276;1283;1015916;-66
2024/03/21 03:01:34;;;;;;;;;;;;;;;12.69;41.03;99279.84;68292;1283;1015896;-69
2024/03/21 03:04:36;;;;;;;;;;;;;;;12.89;40.67;99276.16;68284;1283;1016064;-69
2024/03/21 03:07:38;;;;;;;;;;;;;;;13.02;40.12;99277.73;68286;1283;1015998;-66
2024/03/21 03:10:41;;;;;;;;;;;;;;;12.95;40.34;99279.98;68296;1283;1016025;-62
2024/03/21 03:13:43;;;;;;;;;;;;;;;12.48;41.04;99285.00;68286;1283;1015951;-70
2024/03/21 03:16:45;;;;;;;;;;;;;;;12.46;41.15;99286.17;68291;1283;1015362;-62
2024/03/21 03:19:48;;;;;;;;;;;;;;;12.48;41.06;99286.42;68278;1283;1015943;-69
2024/03/21 03:22:51;;;;;;;;;;;;;;;12.28;41.07;99284.13;68290;1283;1015360;-63
2024/03/21 03:25:53;;;;;;;;;;;;;;;12.15;41.04;99278.58;68288;1283;1016129;-69
2024/03/21 03:28:57;;;;;;;;;;;;;;;11.97;41.01;99272.59;68274;1283;1015784;-63
2024/03/21 03:32:03;;;;;;;;;;;;;;;11.75;41.39;99268.63;68289;1283;1015824;-70
2024/03/21 03:38:26;;;;;;;;;;;;;;;12.00;41.06;99262.95;68275;1283;1015765;-69
2024/03/21 03:41:28;;;;;;;;;;;;;;;11.86;41.56;99262.56;68288;1283;1015258;-70
2024/03/21 03:44:31;;;;;;;;;;;;;;;12.21;40.99;99261.21;68290;1283;1014829;-68
2024/03/21 03:47:34;;;;;;;;;;;;;;;12.22;41.17;99259.21;68288;1283;1015165;-66
2024/03/21 03:50:36;;;;;;;;;;;;;;;12.31;41.06;99262.88;68286;1283;1016203;-62
2024/03/21 03:53:39;;;;;;;;;;;;;;;12.29;41.13;99262.68;68286;1283;1015710;-69
2024/03/21 03:56:41;;;;;;;;;;;;;;;12.36;41.13;99264.70;68287;1283;1016096;-66
2024/03/21 03:59:43;;;;;;;;;;;;;;;12.38;41.15;99262.83;68286;1283;1016056;-64
2024/03/21 04:02:46;;;;;;;;;;;;;;;12.31;41.44;99263.73;68288;1283;1016351;-61
2024/03/21 04:05:48;;;;;;;;;;;;;;;12.44;41.32;99271.73;68280;1283;1015465;-69
2024/03/21 04:08:51;;;;;;;;;;;;;;;12.60;41.19;99274.64;68288;1283;1015971;-70
2024/03/21 04:11:53;;;;;;;;;;;;;;;12.55;41.19;99281.41;68290;1283;1015422;-70
2024/03/21 04:14:56;;;;;;;;;;;;;;;12.44;41.49;99277.70;68290;1283;1016353;-68
2024/03/21 04:17:58;;;;;;;;;;;;;;;12.41;41.56;99280.34;68278;1283;1015403;-67
2024/03/21 04:21:01;;;;;;;;;;;;;;;12.44;41.39;99282.96;68265;1283;1016118;-70
2024/03/21 04:24:03;;;;;;;;;;;;;;;12.50;41.34;99281.52;68288;1283;1015783;-69
2024/03/21 04:27:06;;;;;;;;;;;;;;;12.54;41.41;99282.91;68297;1283;1015476;-62
2024/03/21 04:30:08;;;;;;;;;;;;;;;12.36;41.72;99284.31;68267;1283;1015728;-69
2024/03/21 04:33:11;;;;;;;;;;;;;;;12.26;41.94;99281.09;68292;1283;1016197;-63
2024/03/21 04:36:13;;;;;;;;;;;;;;;12.33;41.70;99272.73;68288;1283;1015522;-61
2024/03/21 04:39:16;;;;;;;;;;;;;;;12.35;41.74;99270.14;68284;1283;1016060;-62
2024/03/21 04:42:19;;;;;;;;;;;;;;;12.40;41.65;99272.00;68289;1283;1015191;-66
2024/03/21 04:45:22;;;;;;;;;;;;;;;12.41;41.80;99274.36;68285;1283;1015813;-69
2024/03/21 04:48:24;;;;;;;;;;;;;;;12.54;41.66;99281.46;68281;1283;1015951;-61
2024/03/21 04:51:27;;;;;;;;;;;;;;;12.49;41.57;99277.77;68275;1283;1016052;-61
2024/03/21 04:54:29;;;;;;;;;;;;;;;12.30;41.92;99280.31;68279;1283;1015821;-62
2024/03/21 04:57:32;;;;;;;;;;;;;;;12.31;41.77;99282.14;68281;1283;1014926;-62
2024/03/21 05:00:35;;;;;;;;;;;;;;;12.26;42.02;99287.55;68288;1283;1016185;-62
2024/03/21 05:03:37;;;;;;;;;;;;;;;12.38;41.90;99286.48;68293;1283;1014580;-69
2024/03/21 05:06:40;;;;;;;;;;;;;;;12.58;41.91;99293.38;68281;1283;1015388;-62
2024/03/21 05:09:42;;;;;;;;;;;;;;;12.61;41.82;99297.33;68279;1283;1015362;-67
2024/03/21 05:12:44;;;;;;;;;;;;;;;12.61;41.95;99302.95;68287;1283;1015872;-62
2024/03/21 05:15:47;;;;;;;;;;;;;;;12.64;41.80;99309.77;68277;1283;1015990;-70
2024/03/21 05:18:49;;;;;;;;;;;;;;;12.74;41.62;99311.13;68278;1283;1016451;-69
2024/03/21 05:21:52;;;;;;;;;;;;;;;12.72;41.81;99311.92;68282;1283;1015800;-69
2024/03/21 05:24:55;;;;;;;;;;;;;;;12.78;41.71;99316.80;65938;1283;5383241;-62
2024/03/21 05:27:57;;;;;;;;;;;;;;;12.78;41.75;99318.95;68273;1282;1015836;-70
2024/03/21 05:31:00;;;;;;;;;;;;;;;12.64;42.08;99322.05;68288;1283;1015192;-61
2024/03/21 05:34:02;;;;;;;;;;;;;;;12.92;41.51;99320.88;68294;1283;1015883;-70
2024/03/21 05:37:06;;;;;;;;;;;;;;;12.94;41.50;99319.33;68284;1283;1015572;-69
2024/03/21 05:40:09;;;;;;;;;;;;;;;13.08;41.51;99315.68;68286;1283;1015533;-61
2024/03/21 05:43:11;;;;;;;;;;;;;;;13.18;41.44;99312.94;68283;1283;1015863;-69
2024/03/21 05:46:14;;;;;;;;;;;;;;;12.94;41.78;99310.91;68284;1283;1016239;-70
2024/03/21 05:49:16;;;;;;;;;;;;;;;12.96;41.85;99304.11;68277;1283;1016156;-62
2024/03/21 05:52:19;;;;;;;;;;;;;;;13.13;41.60;99300.55;68281;1283;1015736;-62
2024/03/21 05:55:21;;;;;;;;;;;;;;;13.26;41.40;99298.93;68281;1283;1015709;-69
2024/03/21 05:58:24;;;;;;;;;;;;;;;13.39;41.19;99292.45;68291;1283;1015206;-61
2024/03/21 06:01:32;;;;;;;;;;;;;;;13.42;41.41;99300.38;68283;1283;1016360;-68
2024/03/21 06:04:35;;;;;;;;;;;;;;;13.36;41.34;99301.22;68287;1283;1015999;-63
2024/03/21 06:07:37;;;;;;;;;;;;;;;13.08;41.85;99303.90;68286;1283;1016223;-69
2024/03/21 06:10:40;;;;;;;;;;;;;;;13.00;41.97;99301.42;68284;1283;1015402;-70
2024/03/21 06:13:42;;;;;;;;;;;;;;;13.08;42.12;99310.92;68289;1283;1015313;-69
2024/03/21 06:16:45;;;;;;;;;;;;;;;13.16;42.13;99310.60;68288;1283;1015588;-62
2024/03/21 06:19:47;;;;;;;;;;;;;;;13.14;42.24;99312.84;68294;1283;1015852;-70
2024/03/21 06:22:50;;;;;;;;;;;;;;;13.53;42.27;99314.41;68293;1283;1015721;-70
2024/03/21 06:25:52;;;;;;;;;;;;;;;14.02;41.79;99310.63;68282;1283;1015934;-63
2024/03/21 06:28:55;;;;;;;;;;;;;;;14.26;41.57;99310.64;68275;1283;1015604;-62
2024/03/21 06:31:57;;;;;;;;;;;;;;;14.44;41.66;99310.77;68286;1283;1014539;-62
2024/03/21 06:35:00;;;;;;;;;;;;;;;14.59;41.50;99310.23;68284;1283;1015780;-69
2024/03/21 06:38:02;;;;;;;;;;;;;;;14.74;41.26;99313.66;68284;1283;1015871;-65
2024/03/21 06:41:05;;;;;;;;;;;;;;;14.95;41.12;99306.16;68270;1283;1015585;-62
2024/03/21 06:44:09;;;;;;;;;;;;;;;15.31;40.46;99307.99;68280;1283;1015694;-67
2024/03/21 06:47:12;;;;;;;;;;;;;;;15.49;40.55;99305.09;68288;1283;1015610;-62
2024/03/21 06:50:16;;;;;;;;;;;;;;;15.60;40.33;99305.54;68284;1283;1015683;-69
2024/03/21 06:53:19;;;;;;;;;;;;;;;15.83;40.13;99307.52;68288;1283;1015717;-62
2024/03/21 06:56:21;;;;;;;;;;;;;;;15.99;40.30;99308.83;68270;1283;1015994;-62
2024/03/21 06:59:25;;;;;;;;;;;;;;;16.36;39.85;99310.37;68293;1283;1015304;-63
2024/03/21 07:02:28;;;;;;;;;;;;;;;16.54;39.63;99310.10;68275;1283;1016105;-62
2024/03/21 07:05:31;;;;;;;;;;;;;;;16.75;39.73;99301.54;68263;1283;1016093;-62
2024/03/21 07:08:33;;;;;;;;;;;;;;;16.97;39.41;99304.85;68297;1283;1014480;-64
2024/03/21 07:11:35;;;;;;;;;;;;;;;17.21;38.90;99309.04;68284;1283;1015796;-69
2024/03/21 07:14:38;;;;;;;;;;;;;;;17.39;38.60;99309.03;68275;1283;1015448;-69
2024/03/21 07:17:40;;;;;;;;;;;;;;;17.36;38.99;99310.35;68282;1283;1015673;-69
2024/03/21 07:20:43;;;;;;;;;;;;;;;17.56;38.53;99315.61;68279;1283;1015621;-63
2024/03/21 07:23:46;;;;;;;;;;;;;;;17.63;38.74;99314.34;68277;1283;1016022;-69
2024/03/21 07:26:49;;;;;;;;;;;;;;;17.71;38.26;99308.86;68286;1283;1015466;-62
2024/03/21 07:29:51;;;;;;;;;;;;;;;17.86;38.04;99313.13;68286;1283;1015406;-63
2024/03/21 07:32:53;;;;;;;;;;;;;;;18.12;37.60;99310.59;68276;1283;1016178;-69
2024/03/21 07:35:56;;;;;;;;;;;;;;;18.12;37.66;99311.73;68277;1283;1016049;-69
2024/03/21 07:38:58;;;;;;;;;;;;;;;18.13;37.51;99316.73;68277;1283;1016170;-62
2024/03/21 07:42:01;;;;;;;;;;;;;;;18.08;37.53;99310.96;68303;1283;1014602;-64
2024/03/21 07:45:05;;;;;;;;;;;;;;;18.22;37.56;99312.77;68276;1283;1016110;-62
2024/03/21 07:48:07;;;;;;;;;;;;;;;18.46;37.59;99319.11;68285;1283;1015695;-63
2024/03/21 07:51:10;;;;;;;;;;;;;;;18.65;37.69;99314.27;68288;1283;1015628;-69
2024/03/21 07:54:12;;;;;;;;;;;;;;;18.91;37.33;99308.32;68279;1283;1015711;-69
2024/03/21 07:57:18;;;;;;;;;;;;;;;19.28;37.16;99304.69;68285;1283;1015374;-69
2024/03/21 08:00:20;;;;;;;;;;;;;;;19.56;36.82;99306.81;68285;1283;1015714;-69
2024/03/21 08:03:23;;;;;;;;;;;;;;;19.81;36.40;99305.23;68280;1283;1016203;-63
2024/03/21 08:06:25;;;;;;;;;;;;;;;20.09;36.24;99299.09;68294;1283;1015803;-63
2024/03/21 08:09:28;;;;;;;;;;;;;;;20.37;36.17;99295.83;68284;1283;1015439;-69
2024/03/21 08:12:30;;;;;;;;;;;;;;;20.41;35.65;99297.00;68285;1283;1015682;-63
2024/03/21 08:15:33;;;;;;;;;;;;;;;20.58;35.90;99298.79;68282;1283;1015948;-68
2024/03/21 08:18:36;;;;;;;;;;;;;;;20.82;35.31;99296.61;68288;1283;1016227;-68
2024/03/21 08:21:38;;;;;;;;;;;;;;;21.04;35.41;99298.48;68286;1283;1016149;-63
2024/03/21 08:24:41;;;;;;;;;;;;;;;21.08;35.12;99300.23;68288;1283;1015934;-68
2024/03/21 08:27:43;;;;;;;;;;;;;;;21.00;35.16;99301.75;68287;1283;1016171;-68
2024/03/21 08:30:46;;;;;;;;;;;;;;;21.33;34.86;99299.81;68292;1283;1016230;-69
2024/03/21 08:33:50;;;;;;;;;;;;;;;21.59;34.45;99298.31;68294;1283;1015106;-63
2024/03/21 08:36:53;;;;;;;;;;;;;;;21.57;34.35;99298.35;68279;1283;1016027;-68
2024/03/21 08:39:57;;;;;;;;;;;;;;;21.51;34.57;99300.55;68288;1283;1015680;-64
2024/03/21 08:43:00;;;;;;;;;;;;;;;21.78;34.18;99301.63;68275;1283;1016079;-69
2024/03/21 08:46:02;;;;;;;;;;;;;;;21.89;34.03;99308.48;68288;1283;1015208;-68
2024/03/21 08:49:05;;;;;;;;;;;;;;;22.06;33.77;99313.80;68292;1283;1016218;-68
2024/03/21 08:52:07;;;;;;;;;;;;;;;21.98;33.09;99310.84;68277;1283;1016273;-69
2024/03/21 08:55:10;;;;;;;;;;;;;;;22.20;32.80;99311.15;68283;1283;1015500;-68
2024/03/21 08:58:12;;;;;;;;;;;;;;;22.26;32.90;99312.85;68289;1283;1015948;-68
2024/03/21 09:01:14;;;;;;;;;;;;;;;22.23;32.93;99308.83;68284;1283;1014440;-69
2024/03/21 09:04:19;;;;;;;;;;;;;;;22.39;32.84;99303.08;68278;1283;1016543;-69
2024/03/21 09:07:21;;;;;;;;;;;;;;;22.61;32.93;99304.11;68301;1283;1015523;-69
2024/03/21 09:10:24;;;;;;;;;;;;;;;22.85;32.50;99297.63;68300;1283;1015139;-69
2024/03/21 09:13:26;;;;;;;;;;;;;;;22.82;32.19;99295.10;68293;1283;1016104;-63
2024/03/21 09:16:29;;;;;;;;;;;;;;;22.97;31.76;99299.61;68282;1283;1016178;-65
2024/03/21 09:19:32;;;;;;;;;;;;;;;23.04;31.97;99297.44;68277;1283;1015286;-69
2024/03/21 09:22:34;;;;;;;;;;;;;;;23.32;31.80;99288.81;68287;1283;1015518;-67
2024/03/21 09:25:37;;;;;;;;;;;;;;;23.63;31.17;99288.67;68281;1283;1015926;-68
2024/03/21 09:28:40;;;;;;;;;;;;;;;23.85;30.93;99286.30;68287;1283;1015349;-69
2024/03/21 09:31:42;;;;;;;;;;;;;;;23.72;31.03;99284.00;68281;1283;1014541;-69
2024/03/21 09:34:47;;;;;;;;;;;;;;;23.69;31.04;99285.56;68291;1283;1016117;-69
2024/03/21 09:37:49;;;;;;;;;;;;;;;23.84;30.55;99286.08;68296;1283;1015928;-68
2024/03/21 09:40:52;;;;;;;;;;;;;;;23.85;31.09;99281.83;68276;1283;1015524;-64
2024/03/21 09:43:58;;;;;;;;;;;;;;;24.26;30.61;99278.98;68290;1283;1016218;-66
2024/03/21 09:47:00;;;;;;;;;;;;;;;24.44;29.90;99280.54;68281;1283;1015708;-69
2024/03/21 09:50:03;;;;;;;;;;;;;;;24.53;30.11;99277.63;68289;1283;1015649;-69
2024/03/21 09:53:05;;;;;;;;;;;;;;;24.70;29.80;99274.97;68290;1283;1014687;-69
2024/03/21 09:56:08;;;;;;;;;;;;;;;24.83;29.82;99274.48;68282;1283;1015638;-68
2024/03/21 09:59:10;;;;;;;;;;;;;;;24.65;29.40;99272.63;68279;1283;1015761;-69
2024/03/21 10:02:13;;;;;;;;;;;;;;;24.63;29.56;99270.73;68292;1283;1015560;-69
2024/03/21 10:05:17;;;;;;;;;;;;;;;24.84;29.76;99265.20;68285;1283;1015298;-68
2024/03/21 10:08:19;;;;;;;;;;;;;;;25.18;29.29;99262.41;68291;1283;1015301;-67
2024/03/21 10:11:22;;;;;;;;;;;;;;;25.44;28.74;99261.93;68291;1283;1015417;-69
2024/03/21 10:14:24;;;;;;;;;;;;;;;25.51;28.93;99261.78;68298;1283;1016736;-68
2024/03/21 10:17:27;;;;;;;;;;;;;;;25.31;29.04;99261.80;68284;1283;1015387;-68
2024/03/21 10:20:30;;;;;;;;;;;;;;;25.27;28.61;99261.23;68279;1283;1015748;-65
2024/03/21 10:23:32;;;;;;;;;;;;;;;25.38;28.44;99255.14;68282;1283;1015957;-68
2024/03/21 10:26:34;;;;;;;;;;;;;;;25.63;28.19;99249.03;68295;1283;1015570;-63
2024/03/21 10:29:37;;;;;;;;;;;;;;;25.62;27.90;99250.55;68283;1283;1015668;-65
2024/03/21 10:32:40;;;;;;;;;;;;;;;25.75;27.67;99245.95;68292;1283;1015270;-69
2024/03/21 10:35:42;;;;;;;;;;;;;;;25.87;27.39;99247.11;68294;1283;1016001;-69
2024/03/21 10:38:45;;;;;;;;;;;;;;;26.02;27.52;99251.10;68283;1283;1015633;-66
2024/03/21 10:41:47;;;;;;;;;;;;;;;26.04;27.18;99246.71;68295;1283;1016006;-68
2024/03/21 10:44:51;;;;;;;;;;;;;;;25.93;27.15;99239.61;68285;1283;1015175;-68
2024/03/21 10:47:53;;;;;;;;;;;;;;;25.86;27.42;99238.22;68293;1283;1014954;-63
2024/03/21 10:50:56;;;;;;;;;;;;;;;25.77;27.57;99237.09;68283;1283;1015987;-66
2024/03/21 10:53:58;;;;;;;;;;;;;;;25.87;27.05;99237.08;68298;1283;1014599;-68
2024/03/21 10:57:01;;;;;;;;;;;;;;;25.76;27.33;99236.36;68291;1283;1015654;-68
2024/03/21 11:00:06;;;;;;;;;;;;;;;25.94;27.23;99228.45;68286;1283;1015450;-69
2024/03/21 11:03:09;;;;;;;;;;;;;;;25.85;26.86;99226.71;68297;1283;1015446;-64
2024/03/21 11:06:13;;;;;;;;;;;;;;;25.86;27.26;99218.70;68288;1283;1015257;-66
2024/03/21 11:09:16;;;;;;;;;;;;;;;26.01;27.11;99218.54;68305;1283;1016019;-66
2024/03/21 11:12:19;;;;;;;;;;;;;;;25.96;27.08;99218.77;68291;1283;1015579;-64
2024/03/21 11:15:22;;;;;;;;;;;;;;;26.12;27.11;99210.62;68283;1283;1014382;-68
2024/03/21 11:18:24;;;;;;;;;;;;;;;26.31;26.78;99207.77;68287;1283;1015747;-68
2024/03/21 11:21:27;;;;;;;;;;;;;;;26.72;26.76;99207.84;68282;1283;1015886;-68
2024/03/21 11:24:29;;;;;;;;;;;;;;;26.95;26.69;99200.70;68291;1283;1015599;-68
2024/03/21 11:27:32;;;;;;;;;;;;;;;26.88;26.42;99199.05;68286;1283;1016173;-68
2024/03/21 11:30:34;;;;;;;;;;;;;;;26.83;26.14;99201.81;68289;1283;1015147;-65
2024/03/21 11:33:37;;;;;;;;;;;;;;;26.41;26.23;99199.09;68281;1283;1015534;-68
2024/03/21 11:36:39;;;;;;;;;;;;;;;26.50;26.25;99198.84;68294;1283;1015853;-64
2024/03/21 11:39:41;;;;;;;;;;;;;;;26.63;26.13;99194.27;68290;1283;1016027;-68
2024/03/21 11:42:44;;;;;;;;;;;;;;;26.81;25.98;99194.52;68297;1283;1015781;-64
2024/03/21 11:45:46;;;;;;;;;;;;;;;26.87;26.10;99187.88;68277;1283;1015665;-69
2024/03/21 11:48:49;;;;;;;;;;;;;;;26.95;26.13;99184.35;68281;1283;1016135;-69
2024/03/21 11:51:51;;;;;;;;;;;;;;;27.35;25.76;99182.48;68288;1283;1014695;-64
2024/03/21 11:54:54;;;;;;;;;;;;;;;27.58;25.42;99177.86;68298;1283;1016042;-64
2024/03/21 11:57:56;;;;;;;;;;;;;;;27.69;25.57;99176.41;68298;1283;1016154;-68
2024/03/21 12:00:59;;;;;;;;;;;;;;;27.61;25.24;99171.80;68280;1283;1016061;-68
2024/03/21 12:04:02;;;;;;;;;;;;;;;27.82;25.81;99169.16;68288;1283;1016083;-68
2024/03/21 12:07:04;;;;;;;;;;;;;;;27.92;25.37;99167.95;68294;1283;1015466;-69
2024/03/21 12:10:07;;;;;;;;;;;;;;;27.82;25.49;99164.73;68292;1283;1015272;-68
2024/03/21 12:13:09;;;;;;;;;;;;;;;28.02;25.42;99158.43;68299;1283;1016102;-63
2024/03/21 12:16:12;;;;;;;;;;;;;;;27.85;24.77;99157.70;68297;1283;1015389;-68
2024/03/21 12:19:14;;;;;;;;;;;;;;;27.89;24.80;99159.17;68294;1283;1015626;-69
2024/03/21 12:22:17;;;;;;;;;;;;;;;27.81;24.80;99156.27;68299;1283;1015753;-67
2024/03/21 12:25:19;;;;;;;;;;;;;;;27.70;25.02;99151.42;68288;1283;1016626;-68
2024/03/21 12:28:25;;;;;;;;;;;;;;;27.65;24.99;99149.95;68292;1283;1015428;-69
2024/03/21 12:31:28;;;;;;;;;;;;;;;27.62;25.38;99144.33;68289;1283;1015660;-68
2024/03/21 12:34:30;;;;;;;;;;;;;;;27.91;24.83;99139.98;68284;1283;1015329;-64
2024/03/21 12:37:33;;;;;;;;;;;;;;;28.03;25.02;99142.29;68289;1283;1015405;-68
2024/03/21 12:40:35;;;;;;;;;;;;;;;28.12;25.03;99145.23;68288;1283;1016085;-68
2024/03/21 12:43:38;;;;;;;;;;;;;;;27.87;25.00;99142.29;68281;1283;1015482;-65
2024/03/21 12:46:40;;;;;;;;;;;;;;;27.83;25.01;99137.98;68292;1283;1015537;-69
2024/03/21 12:49:43;;;;;;;;;;;;;;;27.67;25.14;99135.03;68282;1283;1016145;-67
2024/03/21 12:52:45;;;;;;;;;;;;;;;27.49;25.07;99132.75;68297;1283;1015823;-67
2024/03/21 12:55:47;;;;;;;;;;;;;;;27.77;25.12;99126.39;68302;1283;1015667;-69
2024/03/21 12:58:50;;;;;;;;;;;;;;;27.87;25.28;99127.23;68293;1283;1015667;-68
2024/03/21 13:01:52;;;;;;;;;;;;;;;27.85;24.87;99121.20;68283;1283;1015284;-68
2024/03/21 13:04:55;;;;;;;;;;;;;;;27.91;25.12;99119.76;68295;1283;1015874;-68
2024/03/21 13:07:57;;;;;;;;;;;;;;;28.07;24.65;99117.38;68288;1283;1015834;-69
2024/03/21 13:11:00;;;;;;;;;;;;;;;28.09;25.06;99118.84;68293;1283;1016064;-68
2024/03/21 13:14:02;;;;;;;;;;;;;;;28.17;24.82;99118.67;68279;1283;1015964;-68
2024/03/21 13:17:05;;;;;;;;;;;;;;;28.26;24.71;99117.17;68291;1283;1015970;-69
2024/03/21 13:20:09;;;;;;;;;;;;;;;27.97;24.29;99118.80;68283;1283;1015538;-64
2024/03/21 13:23:11;;;;;;;;;;;;;;;27.86;24.52;99116.79;68274;1283;1016401;-68
2024/03/21 13:26:14;;;;;;;;;;;;;;;27.61;24.85;99113.27;68298;1283;1015849;-66
2024/03/21 13:29:16;;;;;;;;;;;;;;;27.67;25.02;99113.27;68301;1283;1015828;-64
2024/03/21 13:32:18;;;;;;;;;;;;;;;27.76;24.68;99100.65;68295;1283;1015275;-69
2024/03/21 13:35:21;;;;;;;;;;;;;;;27.80;24.73;99103.31;68288;1283;1016022;-69
2024/03/21 13:38:26;;;;;;;;;;;;;;;27.94;24.42;99096.52;68303;1283;1015470;-68
2024/03/21 13:41:29;;;;;;;;;;;;;;;28.31;24.29;99094.03;68283;1283;1015326;-68
2024/03/21 13:44:31;;;;;;;;;;;;;;;28.17;24.01;99093.41;68289;1283;1015665;-63
2024/03/21 13:47:35;;;;;;;;;;;;;;;27.89;24.09;99091.92;68289;1283;1016101;-63
2024/03/21 13:50:38;;;;;;;;;;;;;;;27.73;23.72;99093.79;68296;1283;1015771;-69
2024/03/21 13:53:40;;;;;;;;;;;;;;;27.69;23.77;99090.95;68301;1283;1015552;-68
2024/03/21 13:56:43;;;;;;;;;;;;;;;27.77;23.72;99090.38;68293;1283;1015410;-67
2024/03/21 13:59:46;;;;;;;;;;;;;;;27.98;23.80;99085.75;68298;1283;1015794;-69
2024/03/21 14:02:50;;;;;;;;;;;;;;;28.15;23.68;99075.43;68296;1283;1015760;-63
2024/03/21 14:05:53;;;;;;;;;;;;;;;28.14;23.57;99067.88;68294;1283;1016079;-63
2024/03/21 14:08:55;;;;;;;;;;;;;;;28.37;23.54;99066.89;68289;1283;1015249;-65
2024/03/21 14:11:58;;;;;;;;;;;;;;;28.47;23.81;99068.73;68285;1283;1016042;-63
2024/03/21 14:15:00;;;;;;;;;;;;;;;28.66;23.52;99065.60;68289;1283;1015844;-69
2024/03/21 14:18:03;;;;;;;;;;;;;;;28.34;22.74;99059.89;68299;1283;1015998;-68
2024/03/21 14:21:05;;;;;;;;;;;;;;;27.89;23.62;99059.09;68284;1283;1015563;-64
2024/03/21 14:24:08;;;;;;;;;;;;;;;27.73;23.63;99058.80;68281;1283;1015767;-69
2024/03/21 14:27:10;;;;;;;;;;;;;;;27.70;23.82;99059.52;68285;1283;1016266;-68
2024/03/21 14:30:13;;;;;;;;;;;;;;;27.51;23.58;99057.30;68293;1283;1014825;-65
2024/03/21 14:33:16;;;;;;;;;;;;;;;27.23;23.74;99055.65;68297;1283;1015591;-64
2024/03/21 14:36:19;;;;;;;;;;;;;;;27.33;23.73;99061.23;68307;1283;1015496;-69
2024/03/21 14:39:22;;;;;;;;;;;;;;;27.20;23.71;99064.65;68288;1283;1016101;-68
2024/03/21 14:42:25;;;;;;;;;;;;;;;26.92;23.77;99065.88;68291;1283;1014911;-63
2024/03/21 14:45:28;;;;;;;;;;;;;;;26.96;24.07;99065.94;68282;1283;1015551;-63
2024/03/21 14:48:30;;;;;;;;;;;;;;;26.91;24.24;99065.08;68291;1283;1016188;-67
2024/03/21 14:51:33;;;;;;;;;;;;;;;26.79;24.11;99070.05;68302;1283;1016114;-63
2024/03/21 14:54:35;;;;;;;;;;;;;;;26.55;24.27;99068.73;68300;1283;1014648;-63
2024/03/21 14:57:40;;;;;;;;;;;;;;;26.50;24.41;99072.23;68294;1283;1015039;-63
2024/03/21 15:00:42;;;;;;;;;;;;;;;26.44;24.32;99073.27;68305;1283;1015312;-68
2024/03/21 15:03:46;;;;;;;;;;;;;;;26.32;24.48;99069.30;68295;1283;1015370;-69
2024/03/21 15:06:49;;;;;;;;;;;;;;;26.13;24.62;99066.28;68281;1283;1015611;-63
2024/03/21 15:09:52;;;;;;;;;;;;;;;25.95;24.54;99069.45;68284;1283;1015947;-63
2024/03/21 15:12:54;;;;;;;;;;;;;;;25.89;24.78;99068.46;68290;1283;1015337;-63
2024/03/21 15:15:57;;;;;;;;;;;;;;;25.78;24.66;99059.77;68285;1283;1015192;-69
2024/03/21 15:18:59;;;;;;;;;;;;;;;25.68;24.89;99055.42;68293;1283;1015839;-69
2024/03/21 15:22:02;;;;;;;;;;;;;;;25.60;24.85;99051.77;68279;1283;1015616;-64
2024/03/21 15:25:08;;;;;;;;;;;;;;;25.52;24.94;99056.56;68293;1283;1015207;-68
2024/03/21 15:28:12;;;;;;;;;;;;;;;25.46;24.96;99053.02;68289;1283;1016129;-69
2024/03/21 15:31:21;;;;;;;;;;;;;;;25.41;25.17;99046.91;68291;1283;1015667;-68
2024/03/21 15:34:23;;;;;;;;;;;;;;;25.46;25.12;99047.94;68291;1283;1015616;-68